Time,TemperatureF,DewpointF,PressureIn,WindDirection,WindDirectionDegrees,WindSpeedMPH,WindSpeedGustMPH,Humidity,HourlyPrecipIn,Conditions,Clouds,dailyrainin,SoftwareType,DateUTC
2017-03-28 00:08:00,50.9,48.0,29.91,ESE,116,0.0,0.0,91,0.00,,,0.00,weatherlink.com 1.10,2017-03-28 04:08:00,
2017-03-28 00:23:00,50.8,49.0,29.92,SE,140,0.0,0.0,92,0.02,,,0.02,weatherlink.com 1.10,2017-03-28 04:23:00,
2017-03-28 00:38:00,51.9,50.0,29.92,WNW,286,0.0,1.0,92,0.05,,,0.05,weatherlink.com 1.10,2017-03-28 04:38:00,
2017-03-28 00:53:00,52.1,50.0,29.91,West,281,0.0,0.0,92,0.07,,,0.07,weatherlink.com 1.10,2017-03-28 04:53:00,
2017-03-28 01:09:00,51.5,49.0,29.89,West,281,0.0,0.0,92,0.08,,,0.08,weatherlink.com 1.10,2017-03-28 05:09:00,
2017-03-28 01:23:00,50.7,49.0,29.88,West,281,0.0,0.0,92,0.06,,,0.08,weatherlink.com 1.10,2017-03-28 05:23:00,
2017-03-28 01:39:00,50.1,48.0,29.88,West,281,0.0,0.0,92,0.03,,,0.08,weatherlink.com 1.10,2017-03-28 05:39:00,
2017-03-28 01:54:00,49.7,47.0,29.89,NW,316,0.0,0.0,91,0.01,,,0.08,weatherlink.com 1.10,2017-03-28 05:54:00,
2017-03-28 02:09:00,49.6,47.0,29.87,South,188,0.0,0.0,91,0.00,,,0.08,weatherlink.com 1.10,2017-03-28 06:09:00,
2017-03-28 02:24:00,49.2,47.0,29.86,South,184,0.0,0.0,90,0.00,,,0.08,weatherlink.com 1.10,2017-03-28 06:24:00,
2017-03-28 02:39:00,48.4,46.0,29.84,South,184,0.0,0.0,91,0.00,,,0.08,weatherlink.com 1.10,2017-03-28 06:39:00,
2017-03-28 02:54:00,48.3,46.0,29.83,South,174,0.0,0.0,90,0.00,,,0.08,weatherlink.com 1.10,2017-03-28 06:54:00,
2017-03-28 03:09:00,48.0,45.0,29.83,South,174,0.0,0.0,90,0.00,,,0.08,weatherlink.com 1.10,2017-03-28 07:09:00,
2017-03-28 03:24:00,47.7,45.0,29.83,South,174,0.0,0.0,91,0.00,,,0.08,weatherlink.com 1.10,2017-03-28 07:24:00,
2017-03-28 03:39:00,48.1,44.0,29.85,NW,321,4.0,9.0,87,0.00,,,0.08,weatherlink.com 1.10,2017-03-28 07:39:00,
2017-03-28 03:54:00,49.2,45.0,29.84,NW,312,4.0,7.0,85,0.00,,,0.08,weatherlink.com 1.10,2017-03-28 07:54:00,
2017-03-28 04:09:00,49.4,46.0,29.84,WSW,256,0.0,0.0,87,0.01,,,0.09,weatherlink.com 1.10,2017-03-28 08:09:00,
2017-03-28 04:24:00,49.6,46.0,29.82,WSW,256,0.0,0.0,86,0.01,,,0.09,weatherlink.com 1.10,2017-03-28 08:24:00,
2017-03-28 04:39:00,49.5,46.0,29.83,WSW,256,0.0,0.0,88,0.01,,,0.09,weatherlink.com 1.10,2017-03-28 08:39:00,
2017-03-28 04:54:00,49.4,46.0,29.83,WSW,256,0.0,0.0,87,0.01,,,0.09,weatherlink.com 1.10,2017-03-28 08:54:00,
2017-03-28 05:09:00,50.1,46.0,29.82,WNW,286,0.0,1.0,85,0.00,,,0.09,weatherlink.com 1.10,2017-03-28 09:09:00,
2017-03-28 05:24:00,50.3,46.0,29.82,NW,315,0.0,2.0,86,0.00,,,0.09,weatherlink.com 1.10,2017-03-28 09:24:00,
2017-03-28 05:39:00,50.3,46.0,29.82,NW,325,0.0,7.0,86,0.00,,,0.09,weatherlink.com 1.10,2017-03-28 09:39:00,
2017-03-28 05:54:00,50.3,46.0,29.82,NW,324,0.0,0.0,86,0.00,,,0.09,weatherlink.com 1.10,2017-03-28 09:54:00,
2017-03-28 06:09:00,50.3,46.0,29.82,NW,324,0.0,1.0,86,0.00,,,0.09,weatherlink.com 1.10,2017-03-28 10:09:00,
2017-03-28 06:24:00,50.4,46.0,29.83,NW,324,0.0,0.0,85,0.00,,,0.09,weatherlink.com 1.10,2017-03-28 10:24:00,
2017-03-28 06:39:00,50.4,46.0,29.83,NW,324,0.0,1.0,85,0.02,,,0.11,weatherlink.com 1.10,2017-03-28 10:39:00,
2017-03-28 06:54:00,50.3,46.0,29.84,NW,315,1.0,4.0,85,0.03,,,0.12,weatherlink.com 1.10,2017-03-28 10:54:00,
2017-03-28 07:09:00,50.1,46.0,29.84,NW,312,0.0,2.0,86,0.05,,,0.14,weatherlink.com 1.10,2017-03-28 11:09:00,
2017-03-28 07:24:00,50.0,46.0,29.84,NW,312,0.0,0.0,86,0.05,,,0.14,weatherlink.com 1.10,2017-03-28 11:24:00,
2017-03-28 07:39:00,49.9,46.0,29.84,NW,312,0.0,0.0,86,0.04,,,0.15,weatherlink.com 1.10,2017-03-28 11:39:00,
2017-03-28 07:54:00,49.9,46.0,29.84,NW,313,0.0,0.0,86,0.03,,,0.15,weatherlink.com 1.10,2017-03-28 11:54:00,
2017-03-28 08:09:00,50.0,46.0,29.85,NW,313,0.0,0.0,86,0.01,,,0.15,weatherlink.com 1.10,2017-03-28 12:09:00,
2017-03-28 08:24:00,50.0,46.0,29.84,NW,313,0.0,0.0,85,0.00,,,0.15,weatherlink.com 1.10,2017-03-28 12:24:00,
2017-03-28 08:39:00,50.1,46.0,29.84,NW,313,0.0,0.0,85,0.00,,,0.15,weatherlink.com 1.10,2017-03-28 12:39:00,
2017-03-28 08:54:00,50.3,46.0,29.84,NNW,344,0.0,4.0,85,0.00,,,0.15,weatherlink.com 1.10,2017-03-28 12:54:00,
2017-03-28 09:09:00,50.5,46.0,29.85,NW,313,0.0,5.0,85,0.00,,,0.15,weatherlink.com 1.10,2017-03-28 13:09:00,
2017-03-28 09:24:00,50.6,47.0,29.85,NNW,334,2.0,7.0,86,0.00,,,0.15,weatherlink.com 1.10,2017-03-28 13:24:00,
2017-03-28 09:39:00,50.7,47.0,29.85,NW,317,4.0,8.0,87,0.00,,,0.15,weatherlink.com 1.10,2017-03-28 13:39:00,
2017-03-28 09:54:00,51.3,47.0,29.85,NNW,346,0.0,7.0,86,0.01,,,0.16,weatherlink.com 1.10,2017-03-28 13:54:00,
2017-03-28 10:09:00,51.2,48.0,29.85,NW,313,6.0,9.0,89,0.01,,,0.16,weatherlink.com 1.10,2017-03-28 14:09:00,
2017-03-28 10:24:00,51.7,48.0,29.86,NW,311,4.0,7.0,88,0.01,,,0.16,weatherlink.com 1.10,2017-03-28 14:24:00,
2017-03-28 10:39:00,52.2,49.0,29.85,NW,309,0.0,7.0,90,0.01,,,0.16,weatherlink.com 1.10,2017-03-28 14:39:00,
2017-03-28 10:54:00,52.1,50.0,29.85,NW,307,5.0,6.0,92,0.00,,,0.16,weatherlink.com 1.10,2017-03-28 14:54:00,
2017-03-28 11:09:00,52.4,50.0,29.86,NNW,342,0.0,8.0,92,0.00,,,0.16,weatherlink.com 1.10,2017-03-28 15:09:00,
2017-03-28 11:24:00,52.6,50.0,29.86,NNW,336,0.0,7.0,92,0.00,,,0.16,weatherlink.com 1.10,2017-03-28 15:24:00,
2017-03-28 11:39:00,52.5,50.0,29.86,NNW,328,1.0,9.0,92,0.00,,,0.16,weatherlink.com 1.10,2017-03-28 15:39:00,
2017-03-28 11:54:00,53.2,51.0,29.86,NW,324,6.0,9.0,92,0.00,,,0.16,weatherlink.com 1.10,2017-03-28 15:54:00,
2017-03-28 12:09:00,53.9,51.0,29.86,NW,305,1.0,10.0,90,0.00,,,0.16,weatherlink.com 1.10,2017-03-28 16:09:00,
2017-03-28 12:25:00,54.4,51.0,29.86,NW,319,4.0,15.0,89,0.00,,,0.16,weatherlink.com 1.10,2017-03-28 16:25:00,
2017-03-28 12:39:00,54.1,51.0,29.86,WNW,294,5.0,8.0,90,0.00,,,0.16,weatherlink.com 1.10,2017-03-28 16:39:00,
2017-03-28 12:54:00,54.2,51.0,29.85,North,7,5.0,9.0,90,0.00,,,0.16,weatherlink.com 1.10,2017-03-28 16:54:00,
2017-03-28 13:09:00,54.1,52.0,29.85,NW,311,4.0,9.0,91,0.00,,,0.16,weatherlink.com 1.10,2017-03-28 17:09:00,
2017-03-28 13:24:00,55.4,52.0,29.85,WNW,286,4.0,10.0,89,0.00,,,0.16,weatherlink.com 1.10,2017-03-28 17:24:00,
2017-03-28 13:39:00,54.5,51.0,29.85,NNW,334,0.0,13.0,88,0.00,,,0.16,weatherlink.com 1.10,2017-03-28 17:39:00,
2017-03-28 13:54:00,55.0,52.0,29.85,NW,311,7.0,10.0,90,0.00,,,0.16,weatherlink.com 1.10,2017-03-28 17:54:00,
2017-03-28 14:10:00,56.1,52.0,29.85,NNE,17,8.0,11.0,86,0.00,,,0.16,weatherlink.com 1.10,2017-03-28 18:10:00,
2017-03-28 14:24:00,55.3,51.0,29.85,NW,311,1.0,13.0,86,0.00,,,0.16,weatherlink.com 1.10,2017-03-28 18:24:00,
2017-03-28 14:40:00,55.3,52.0,29.85,NNW,338,0.0,9.0,88,0.00,,,0.16,weatherlink.com 1.10,2017-03-28 18:40:00,
2017-03-28 14:55:00,54.1,51.0,29.86,North,5,4.0,11.0,88,0.01,,,0.17,weatherlink.com 1.10,2017-03-28 18:55:00,
2017-03-28 15:10:00,52.6,50.0,29.86,NW,314,0.0,8.0,92,0.01,,,0.17,weatherlink.com 1.10,2017-03-28 19:10:00,
2017-03-28 15:25:00,53.3,51.0,29.85,NW,305,3.0,8.0,92,0.01,,,0.17,weatherlink.com 1.10,2017-03-28 19:25:00,
2017-03-28 15:40:00,54.0,52.0,29.85,NW,325,4.0,9.0,91,0.01,,,0.17,weatherlink.com 1.10,2017-03-28 19:40:00,
2017-03-28 15:55:00,55.9,53.0,29.85,West,273,5.0,13.0,89,0.00,,,0.17,weatherlink.com 1.10,2017-03-28 19:55:00,
2017-03-28 16:10:00,56.9,52.0,29.85,NW,305,7.0,14.0,84,0.00,,,0.17,weatherlink.com 1.10,2017-03-28 20:10:00,
2017-03-28 16:25:00,57.1,53.0,29.86,NNW,348,0.0,12.0,85,0.00,,,0.17,weatherlink.com 1.10,2017-03-28 20:25:00,
2017-03-28 16:40:00,57.5,52.0,29.86,North,357,5.0,11.0,83,0.00,,,0.17,weatherlink.com 1.10,2017-03-28 20:40:00,
2017-03-28 16:55:00,56.9,52.0,29.87,WNW,290,5.0,11.0,83,0.00,,,0.17,weatherlink.com 1.10,2017-03-28 20:55:00,
2017-03-28 17:10:00,56.9,52.0,29.86,NNW,339,10.0,14.0,83,0.00,,,0.17,weatherlink.com 1.10,2017-03-28 21:10:00,
2017-03-28 17:25:00,55.9,52.0,29.87,NNW,337,1.0,13.0,85,0.00,,,0.17,weatherlink.com 1.10,2017-03-28 21:25:00,
2017-03-28 17:40:00,55.3,52.0,29.88,North,1,0.0,11.0,87,0.00,,,0.17,weatherlink.com 1.10,2017-03-28 21:40:00,